Hinds Junior College, Mississippi
Current Conditions -  °F | °C
As of 3:35 PM on Thursday 18 Dec 2014 (Local Time) from KJVW Reporting Station
Overcast Overcast  
Wind Chill: 52°   Ceiling: 4100
Heat Index: 52°   Visibility: 10mi
Dew Point: 46°   Wind: 3mph
Humidity: 82%   Direction: 130°SE
Pressure: 30.14"   Gusts: NA
Location:  32.1194°N, 90.6077°W
Report Text: KJVW 182135Z AUTO 13003KT 10SM OVC041 11/08 A3014 RMK AO2
Loading
Personal Weather Stations






























Interactive Weather Map New forecast layout! Learn more

10-Day Weather Forecast

Advertisements
Track Severe Weather on mobile